Time;durP1;ratioP1;P1;durP2;ratioP2;P2;SDS_P1;SDS_P2;PMS_P1;PMS_P2;Temp;Humidity;BMP_temperature;BMP_pressure;BME280_temperature;BME280_humidity;BME280_pressure;Samples;Min_cycle;Max_cycle;Signal;HPM_P1;HPM_P2
2023/08/03 00:00:08;;;;;;;6.10;1.38;;;16.60;99.90;;;;;;5000347;28;20034;-76
2023/08/03 00:02:34;;;;;;;2.28;0.85;;;16.70;99.90;;;;;;5014072;28;20038;-77
2023/08/03 00:05:03;;;;;;;4.50;1.40;;;16.80;99.90;;;;;;4998251;28;20038;-76
2023/08/03 00:07:29;;;;;;;8.25;1.85;;;16.90;99.90;;;;;;5015056;28;20443;-76
2023/08/03 00:09:55;;;;;;;5.75;1.20;;;16.70;99.90;;;;;;4998283;28;20042;-77
2023/08/03 00:12:22;;;;;;;5.05;1.40;;;16.60;99.90;;;;;;5015925;28;20037;-76
2023/08/03 00:14:49;;;;;;;5.38;1.60;;;16.50;99.90;;;;;;5017697;28;20037;-76
2023/08/03 00:17:14;;;;;;;6.30;1.63;;;16.50;99.90;;;;;;5034306;28;20044;-76
2023/08/03 00:19:40;;;;;;;7.18;1.45;;;16.50;99.90;;;;;;5006790;28;20038;-76
2023/08/03 00:22:06;;;;;;;7.20;1.50;;;16.40;99.90;;;;;;4998328;28;20038;-77
2023/08/03 00:24:31;;;;;;;4.47;1.20;;;16.50;99.90;;;;;;4998051;28;20073;-77
2023/08/03 00:26:57;;;;;;;6.80;1.58;;;16.50;99.90;;;;;;5015049;28;20057;-77
2023/08/03 00:29:23;;;;;;;5.00;1.60;;;16.50;99.90;;;;;;5024160;28;20049;-77
2023/08/03 00:31:48;;;;;;;5.32;1.50;;;16.50;99.90;;;;;;5034097;28;20067;-77
2023/08/03 00:34:14;;;;;;;4.25;1.33;;;16.50;99.90;;;;;;5000663;28;20417;-77
2023/08/03 00:36:39;;;;;;;6.43;1.45;;;16.50;99.90;;;;;;5023952;28;20103;-77
2023/08/03 00:39:05;;;;;;;4.88;1.70;;;16.50;99.90;;;;;;5029202;28;20037;-77
2023/08/03 00:41:31;;;;;;;3.92;1.30;;;16.50;99.90;;;;;;5021056;28;20041;-77
2023/08/03 00:43:56;;;;;;;4.82;1.30;;;16.50;99.90;;;;;;5043218;28;20477;-78
2023/08/03 00:46:22;;;;;;;5.68;1.60;;;16.60;99.90;;;;;;5029424;28;20038;-77
2023/08/03 00:48:48;;;;;;;7.97;1.77;;;16.60;99.90;;;;;;5003130;28;20468;-77
2023/08/03 00:51:13;;;;;;;4.65;1.45;;;16.60;99.90;;;;;;5030533;28;20406;-78
2023/08/03 00:53:39;;;;;;;7.35;1.27;;;16.60;99.90;;;;;;4999864;28;20041;-78
2023/08/03 00:56:05;;;;;;;6.00;1.48;;;16.60;99.90;;;;;;5030097;28;20185;-78
2023/08/03 00:58:31;;;;;;;3.40;1.25;;;16.60;99.90;;;;;;5027989;28;20104;-77
2023/08/03 01:00:56;;;;;;;4.22;1.50;;;16.60;99.90;;;;;;5012988;28;20098;-77
2023/08/03 01:03:22;;;;;;;7.78;1.67;;;16.60;99.90;;;;;;5030951;28;20482;-78
2023/08/03 01:05:47;;;;;;;6.63;1.40;;;16.60;99.90;;;;;;5015436;28;20037;-77
2023/08/03 01:08:13;;;;;;;5.28;1.27;;;16.60;99.90;;;;;;5025139;28;20073;-77
2023/08/03 01:10:39;;;;;;;6.38;1.30;;;16.60;99.90;;;;;;5047770;28;20056;-77
2023/08/03 01:13:04;;;;;;;4.85;1.17;;;16.60;99.90;;;;;;5032871;28;20033;-77
2023/08/03 01:15:30;;;;;;;3.90;1.00;;;16.60;99.90;;;;;;5020142;28;20116;-77
2023/08/03 01:17:55;;;;;;;3.35;1.08;;;16.50;99.90;;;;;;5005384;28;20029;-77
2023/08/03 01:20:23;;;;;;;5.03;1.20;;;16.60;99.90;;;;;;5031367;28;20073;-77
2023/08/03 01:22:49;;;;;;;4.07;1.30;;;16.50;99.90;;;;;;5029432;28;20109;-77
2023/08/03 01:25:15;;;;;;;6.93;1.20;;;16.50;99.90;;;;;;5033053;28;20168;-78
2023/08/03 01:27:44;;;;;;;6.88;1.05;;;16.50;99.90;;;;;;5008685;28;20046;-77
2023/08/03 01:30:10;;;;;;;3.67;1.17;;;16.60;99.90;;;;;;5031303;28;20042;-78
2023/08/03 01:32:36;;;;;;;3.25;1.00;;;16.60;99.90;;;;;;5024543;28;20097;-78
2023/08/03 01:35:02;;;;;;;4.57;1.40;;;16.50;99.90;;;;;;5023051;28;20116;-77
2023/08/03 01:37:27;;;;;;;3.83;1.10;;;16.50;99.90;;;;;;5030824;28;20038;-77
2023/08/03 01:39:54;;;;;;;4.50;1.20;;;16.40;99.90;;;;;;5018133;28;20399;-77
2023/08/03 01:42:19;;;;;;;4.15;1.05;;;16.60;99.90;;;;;;5051668;28;20045;-77
2023/08/03 01:44:45;;;;;;;3.67;1.00;;;16.50;99.90;;;;;;5017097;28;20041;-77
2023/08/03 01:47:11;;;;;;;1.98;0.80;;;16.60;99.90;;;;;;5014789;28;20087;-77
2023/08/03 01:49:37;;;;;;;3.55;0.98;;;16.60;99.90;;;;;;5016296;28;20141;-77
2023/08/03 01:52:02;;;;;;;3.08;0.90;;;16.60;99.90;;;;;;5031172;28;20095;-78
2023/08/03 01:54:28;;;;;;;4.70;1.10;;;16.60;99.90;;;;;;5004225;28;20095;-77
2023/08/03 01:56:54;;;;;;;2.55;0.80;;;16.70;99.90;;;;;;5029529;28;20033;-77
2023/08/03 01:59:19;;;;;;;3.20;0.80;;;16.70;99.90;;;;;;5021566;28;20122;-77
2023/08/03 02:01:45;;;;;;;1.83;0.80;;;16.60;99.90;;;;;;5013966;28;20064;-77
2023/08/03 02:04:11;;;;;;;4.22;0.90;;;16.60;99.90;;;;;;5013285;28;20048;-77
2023/08/03 02:06:37;;;;;;;1.27;0.70;;;16.60;99.90;;;;;;4996241;28;20405;-77
2023/08/03 02:09:04;;;;;;;1.15;0.70;;;16.60;99.90;;;;;;5029127;28;20041;-77
2023/08/03 02:11:30;;;;;;;2.88;0.85;;;16.60;99.90;;;;;;5032491;28;20046;-77
2023/08/03 02:13:55;;;;;;;3.20;0.80;;;16.60;99.90;;;;;;5027107;28;20398;-77
2023/08/03 02:16:21;;;;;;;2.08;0.90;;;16.60;99.90;;;;;;5029021;28;20112;-78
2023/08/03 02:18:47;;;;;;;1.58;0.90;;;16.60;99.90;;;;;;5003651;28;20030;-78
2023/08/03 02:21:12;;;;;;;3.00;0.98;;;16.50;99.90;;;;;;5009242;28;20501;-78
2023/08/03 02:23:38;;;;;;;2.30;0.85;;;16.50;99.90;;;;;;5013894;28;20049;-77
2023/08/03 02:26:03;;;;;;;6.32;1.30;;;16.60;99.90;;;;;;4998315;28;20050;-78
2023/08/03 02:28:32;;;;;;;7.25;1.20;;;16.60;99.90;;;;;;5015044;28;20037;-78
2023/08/03 02:30:58;;;;;;;2.92;1.13;;;16.60;99.90;;;;;;4999911;28;20041;-78
2023/08/03 02:33:24;;;;;;;2.17;1.02;;;16.60;99.90;;;;;;5030034;28;20494;-78
2023/08/03 02:35:49;;;;;;;2.53;1.05;;;16.60;99.90;;;;;;5030201;28;20034;-78
2023/08/03 02:38:15;;;;;;;2.80;0.90;;;16.60;99.90;;;;;;5005711;28;20096;-79
2023/08/03 02:40:41;;;;;;;3.17;1.23;;;16.60;99.90;;;;;;5016722;28;20125;-78
2023/08/03 02:43:07;;;;;;;4.75;1.10;;;16.60;99.90;;;;;;5023439;28;20156;-78
2023/08/03 02:45:32;;;;;;;3.00;1.30;;;16.50;99.90;;;;;;5009505;28;20505;-78
2023/08/03 02:47:58;;;;;;;5.88;1.38;;;16.50;99.90;;;;;;5023538;28;20048;-79
2023/08/03 02:50:23;;;;;;;3.42;1.30;;;16.60;99.90;;;;;;5004308;28;20116;-78
2023/08/03 02:52:49;;;;;;;1.42;1.10;;;16.50;99.90;;;;;;5027041;28;20030;-78
2023/08/03 02:55:16;;;;;;;4.13;1.55;;;16.50;99.90;;;;;;4997447;28;20069;-78
2023/08/03 02:57:42;;;;;;;2.95;1.15;;;16.50;99.90;;;;;;5014082;28;20087;-78
2023/08/03 03:00:08;;;;;;;3.47;1.33;;;16.50;99.90;;;;;;5012222;28;20034;-78
2023/08/03 03:02:34;;;;;;;5.93;1.55;;;16.50;99.90;;;;;;5031035;28;20037;-79
2023/08/03 03:04:59;;;;;;;4.35;1.50;;;16.50;99.90;;;;;;5028900;28;20043;-79
2023/08/03 03:07:25;;;;;;;3.78;1.40;;;16.50;99.90;;;;;;5020603;28;20042;-78
2023/08/03 03:09:50;;;;;;;2.60;1.20;;;16.50;99.90;;;;;;5009523;28;20065;-78
2023/08/03 03:12:16;;;;;;;3.58;1.45;;;16.40;99.90;;;;;;5024478;28;20044;-78
2023/08/03 03:14:41;;;;;;;3.45;1.40;;;16.40;99.90;;;;;;5027965;28;20383;-78
2023/08/03 03:17:07;;;;;;;4.53;1.38;;;16.40;99.90;;;;;;5023806;28;20453;-78
2023/08/03 03:19:33;;;;;;;1.58;1.10;;;16.40;99.90;;;;;;5007086;28;20464;-78
2023/08/03 03:21:58;;;;;;;2.42;1.33;;;16.40;99.90;;;;;;5028825;28;20064;-78
2023/08/03 03:24:24;;;;;;;4.78;1.23;;;16.40;99.90;;;;;;5006018;28;20049;-78
2023/08/03 03:26:49;;;;;;;2.60;1.17;;;16.50;99.90;;;;;;5020121;28;20058;-79
2023/08/03 03:29:15;;;;;;;3.58;1.40;;;16.50;99.90;;;;;;5022984;28;20076;-78
2023/08/03 03:31:40;;;;;;;3.35;1.75;;;16.40;99.90;;;;;;4995209;28;20041;-79
2023/08/03 03:34:06;;;;;;;4.00;1.80;;;16.50;99.90;;;;;;5013597;28;20110;-78
2023/08/03 03:36:32;;;;;;;3.88;2.15;;;16.40;99.90;;;;;;5028459;28;20037;-79
2023/08/03 03:38:57;;;;;;;6.80;2.10;;;16.40;99.90;;;;;;5018802;28;20375;-78
2023/08/03 03:41:23;;;;;;;7.50;2.90;;;16.40;99.90;;;;;;5028118;28;20040;-78
2023/08/03 03:43:48;;;;;;;6.68;3.13;;;16.40;99.90;;;;;;5008343;28;20132;-79
2023/08/03 03:46:14;;;;;;;6.47;3.50;;;16.40;99.90;;;;;;5038565;28;20037;-78
2023/08/03 03:48:39;;;;;;;6.40;3.72;;;16.40;99.90;;;;;;5034947;28;20037;-78
2023/08/03 03:51:05;;;;;;;9.73;3.75;;;16.50;99.90;;;;;;5031142;28;20095;-78
2023/08/03 03:53:30;;;;;;;5.85;3.35;;;16.50;99.90;;;;;;5009761;28;20037;-79
2023/08/03 03:55:56;;;;;;;8.25;4.20;;;16.50;99.90;;;;;;5034437;28;20033;-79
2023/08/03 03:58:22;;;;;;;7.63;4.32;;;16.50;99.90;;;;;;5003543;28;20121;-78
2023/08/03 04:00:47;;;;;;;8.07;4.90;;;16.50;99.90;;;;;;4997970;28;20041;-79
2023/08/03 04:03:13;;;;;;;6.55;4.22;;;16.50;99.90;;;;;;5020420;28;20096;-78
2023/08/03 04:05:38;;;;;;;7.18;4.53;;;16.50;99.90;;;;;;5012863;28;20092;-78
2023/08/03 04:08:05;;;;;;;9.02;4.88;;;16.50;99.90;;;;;;5031825;28;20041;-79
2023/08/03 04:10:31;;;;;;;11.00;5.05;;;16.40;99.90;;;;;;5017189;28;20076;-79
2023/08/03 04:12:57;;;;;;;8.70;4.30;;;16.50;99.90;;;;;;5015856;28;20444;-79
2023/08/03 04:15:23;;;;;;;8.70;4.40;;;16.40;99.90;;;;;;5023739;28;20030;-79
2023/08/03 04:17:48;;;;;;;6.80;4.07;;;16.40;99.90;;;;;;5023798;28;20497;-78
2023/08/03 04:20:15;;;;;;;10.77;4.20;;;16.40;99.90;;;;;;5033796;28;20041;-78
2023/08/03 04:22:41;;;;;;;9.80;4.07;;;16.40;99.90;;;;;;5033066;28;20461;-79
2023/08/03 04:25:07;;;;;;;8.75;4.40;;;16.40;99.90;;;;;;5033893;28;20077;-78
2023/08/03 04:27:32;;;;;;;9.25;4.97;;;16.30;99.90;;;;;;5026468;28;20481;-79
2023/08/03 04:29:58;;;;;;;10.10;4.30;;;16.30;99.90;;;;;;5001032;28;20042;-78
2023/08/03 04:32:24;;;;;;;9.65;3.88;;;16.40;99.90;;;;;;5020921;28;20037;-79
2023/08/03 04:34:49;;;;;;;9.60;4.18;;;16.40;99.90;;;;;;5033399;28;20410;-78
2023/08/03 04:37:15;;;;;;;10.48;4.13;;;16.40;99.90;;;;;;5030244;28;20042;-79
2023/08/03 04:39:40;;;;;;;9.07;3.80;;;16.40;99.90;;;;;;5023946;28;20096;-79
2023/08/03 04:42:06;;;;;;;10.90;3.80;;;16.50;99.90;;;;;;5018355;28;20033;-79
2023/08/03 04:44:32;;;;;;;8.60;3.22;;;16.40;99.90;;;;;;5033375;28;20033;-79
2023/08/03 04:46:57;;;;;;;11.18;3.20;;;16.40;99.90;;;;;;5030423;28;20136;-79
2023/08/03 04:49:25;;;;;;;11.50;3.35;;;16.50;99.90;;;;;;5021355;28;20055;-78
2023/08/03 04:51:51;;;;;;;8.07;3.08;;;16.60;99.90;;;;;;4997031;28;20557;-79
2023/08/03 04:54:17;;;;;;;9.90;3.00;;;16.60;99.90;;;;;;5008312;28;20108;-79
2023/08/03 04:56:42;;;;;;;9.55;2.55;;;16.70;99.90;;;;;;5027847;28;20041;-78
2023/08/03 04:59:08;;;;;;;6.60;2.38;;;16.70;99.90;;;;;;4999320;28;20117;-78
2023/08/03 05:01:33;;;;;;;8.85;2.33;;;16.70;99.90;;;;;;5029643;28;20400;-79
2023/08/03 05:04:00;;;;;;;7.88;2.30;;;16.80;99.90;;;;;;5030590;28;20051;-79
2023/08/03 05:06:26;;;;;;;9.23;2.38;;;16.80;99.90;;;;;;5032898;28;20042;-79
2023/08/03 05:08:52;;;;;;;11.18;2.55;;;16.80;99.90;;;;;;5027181;28;20511;-78
2023/08/03 05:11:18;;;;;;;8.40;1.85;;;16.70;99.90;;;;;;5023058;28;20125;-78
2023/08/03 05:13:43;;;;;;;11.18;2.28;;;16.80;99.90;;;;;;5010380;28;20379;-78
2023/08/03 05:16:09;;;;;;;8.70;2.28;;;16.70;99.90;;;;;;5007366;28;20037;-78
2023/08/03 05:18:34;;;;;;;8.55;2.15;;;16.70;99.90;;;;;;5026537;28;20152;-79
2023/08/03 05:21:00;;;;;;;6.43;1.90;;;16.60;99.90;;;;;;5010629;28;20106;-78
2023/08/03 05:23:25;;;;;;;9.82;2.33;;;16.60;99.90;;;;;;5034002;28;20102;-78
2023/08/03 05:25:55;;;;;;;7.82;2.22;;;16.50;99.90;;;;;;5032222;28;20490;-78
2023/08/03 05:28:22;;;;;;;11.02;2.95;;;16.50;99.90;;;;;;5002663;28;20049;-79
2023/08/03 05:30:48;;;;;;;13.75;2.80;;;16.50;99.90;;;;;;5027870;28;20044;-79
2023/08/03 05:33:14;;;;;;;8.00;2.40;;;16.40;99.90;;;;;;5006370;28;20033;-79
2023/08/03 05:35:40;;;;;;;11.77;2.60;;;16.40;99.90;;;;;;5014183;28;20044;-78
2023/08/03 05:38:06;;;;;;;9.50;2.75;;;16.40;99.90;;;;;;5003859;28;20042;-79
2023/08/03 05:40:31;;;;;;;12.50;2.95;;;16.40;99.90;;;;;;4996800;28;20038;-79
2023/08/03 05:42:57;;;;;;;10.32;3.45;;;16.40;99.90;;;;;;5017528;28;20119;-79
2023/08/03 05:45:40;;;;;;;10.93;3.03;;;16.40;99.90;;;;;;5041410;28;20040;-78
2023/08/03 05:48:14;;;;;;;12.38;3.65;;;16.40;99.90;;;;;;5016694;28;20047;-78
2023/08/03 05:50:43;;;;;;;12.32;2.67;;;16.30;99.90;;;;;;5031789;28;20115;-78
2023/08/03 05:53:10;;;;;;;12.52;2.88;;;16.30;99.90;;;;;;5032121;28;20060;-78
2023/08/03 05:55:37;;;;;;;11.60;3.30;;;16.40;99.90;;;;;;5028899;28;20045;-79
2023/08/03 05:58:04;;;;;;;12.32;4.10;;;16.50;99.90;;;;;;4998503;28;20041;-78
2023/08/03 06:00:29;;;;;;;15.00;4.20;;;16.40;99.90;;;;;;5020165;28;20083;-79
2023/08/03 06:02:59;;;;;;;10.43;3.47;;;16.40;99.90;;;;;;5016344;28;20474;-79
2023/08/03 06:05:45;;;;;;;11.32;3.72;;;16.50;99.90;;;;;;4998400;28;20372;-78
2023/08/03 06:08:23;;;;;;;14.07;3.83;;;16.50;99.90;;;;;;5016833;28;20069;-79
2023/08/03 06:10:53;;;;;;;15.50;4.28;;;16.50;99.90;;;;;;5014071;28;24202;-79
2023/08/03 06:13:25;;;;;;;15.02;3.90;;;16.50;99.90;;;;;;5020163;28;20100;-78
2023/08/03 06:15:50;;;;;;;12.80;3.70;;;16.60;99.90;;;;;;5002553;28;20041;-78
2023/08/03 06:18:18;;;;;;;16.17;4.60;;;16.60;99.90;;;;;;5006071;28;20037;-79
2023/08/03 06:20:46;;;;;;;11.77;4.30;;;16.60;99.90;;;;;;5025680;28;20043;-79
2023/08/03 06:23:32;;;;;;;14.23;4.25;;;16.60;99.90;;;;;;5030883;28;20041;-78
2023/08/03 06:25:59;;;;;;;11.02;3.83;;;16.60;99.90;;;;;;5026656;28;20049;-78
2023/08/03 06:28:25;;;;;;;14.05;4.00;;;16.70;99.90;;;;;;5032102;28;20045;-78
2023/08/03 06:30:51;;;;;;;10.65;4.00;;;16.70;99.90;;;;;;5010427;28;20068;-78
2023/08/03 06:33:21;;;;;;;12.30;4.03;;;16.70;99.90;;;;;;5012727;28;20074;-78
2023/08/03 06:35:47;;;;;;;11.75;3.78;;;16.70;99.90;;;;;;5012661;28;20485;-78
2023/08/03 06:38:18;;;;;;;11.60;3.85;;;16.80;99.90;;;;;;5023806;28;20099;-79
2023/08/03 06:40:46;;;;;;;10.45;4.00;;;16.80;99.90;;;;;;5019259;28;20535;-76
2023/08/03 06:43:13;;;;;;;10.98;3.92;;;16.90;99.90;;;;;;5004120;28;20100;-76
2023/08/03 06:45:39;;;;;;;10.18;4.00;;;16.90;99.90;;;;;;5012429;28;20041;-75
2023/08/03 06:48:05;;;;;;;9.13;3.25;;;17.00;99.90;;;;;;5018364;28;20050;-75
2023/08/03 06:50:32;;;;;;;9.07;3.80;;;17.00;99.90;;;;;;5012180;28;20042;-74
2023/08/03 06:52:58;;;;;;;9.40;3.10;;;17.10;99.90;;;;;;5014609;28;20042;-77
2023/08/03 06:55:25;;;;;;;8.43;3.10;;;17.10;99.90;;;;;;5003803;28;20034;-75
2023/08/03 06:57:51;;;;;;;8.23;2.63;;;17.10;99.90;;;;;;5024128;28;20038;-76
2023/08/03 07:00:17;;;;;;;7.93;2.92;;;17.20;99.90;;;;;;5015309;28;20045;-76
2023/08/03 07:02:44;;;;;;;7.45;2.63;;;17.30;99.90;;;;;;4995931;28;20084;-76
2023/08/03 07:05:10;;;;;;;7.72;2.60;;;17.40;99.90;;;;;;5013133;28;20494;-76
2023/08/03 07:07:35;;;;;;;6.47;2.13;;;17.40;99.90;;;;;;5011999;28;20164;-75
2023/08/03 07:10:01;;;;;;;8.88;2.70;;;17.50;99.90;;;;;;5008158;28;20070;-75
2023/08/03 07:12:27;;;;;;;8.15;2.40;;;17.50;99.90;;;;;;5032357;28;20095;-78
2023/08/03 07:14:54;;;;;;;7.07;2.10;;;17.50;99.90;;;;;;5021536;28;20042;-78
2023/08/03 07:17:20;;;;;;;7.55;2.20;;;17.60;99.90;;;;;;5020815;28;20509;-78
2023/08/03 07:19:50;;;;;;;7.18;2.38;;;17.60;99.90;;;;;;5030284;28;20037;-78
2023/08/03 07:22:17;;;;;;;5.60;1.88;;;17.70;99.90;;;;;;5035392;28;20087;-78
2023/08/03 07:24:43;;;;;;;5.53;2.10;;;17.70;99.90;;;;;;5034186;28;20052;-78
2023/08/03 07:27:08;;;;;;;6.10;2.08;;;17.70;99.90;;;;;;5011723;28;20132;-78
2023/08/03 07:29:34;;;;;;;5.38;1.90;;;17.70;99.90;;;;;;5027955;28;20046;-79
2023/08/03 07:32:01;;;;;;;5.75;1.90;;;17.70;99.90;;;;;;5030045;28;20486;-79
2023/08/03 07:34:26;;;;;;;5.15;1.60;;;17.90;99.90;;;;;;5028875;28;20044;-79
2023/08/03 07:36:53;;;;;;;4.90;1.73;;;17.90;99.90;;;;;;5006196;28;20037;-79
2023/08/03 07:39:19;;;;;;;3.35;1.55;;;18.00;99.90;;;;;;5027965;28;20045;-78
2023/08/03 07:41:45;;;;;;;6.05;1.92;;;18.10;99.90;;;;;;4999418;28;20433;-79
2023/08/03 07:44:10;;;;;;;3.22;1.52;;;18.10;99.90;;;;;;5017250;28;20034;-78
2023/08/03 07:46:36;;;;;;;6.53;1.48;;;18.00;99.90;;;;;;5029371;28;20041;-79
2023/08/03 07:49:01;;;;;;;4.88;1.42;;;18.10;99.90;;;;;;5034549;28;20512;-79
2023/08/03 07:51:27;;;;;;;5.78;1.50;;;18.10;99.90;;;;;;5033056;28;20098;-78
2023/08/03 07:53:53;;;;;;;5.47;1.30;;;18.10;99.90;;;;;;5033769;28;20056;-79
2023/08/03 07:56:21;;;;;;;5.63;1.50;;;18.10;99.90;;;;;;5032880;28;20048;-79
2023/08/03 07:58:48;;;;;;;4.60;1.30;;;18.20;99.90;;;;;;5032895;28;20045;-79
2023/08/03 08:01:14;;;;;;;3.75;1.17;;;18.30;99.90;;;;;;5033845;28;20575;-79
2023/08/03 08:03:41;;;;;;;4.82;1.25;;;18.40;99.90;;;;;;5017425;28;20091;-79
2023/08/03 08:06:08;;;;;;;3.88;1.30;;;18.50;99.90;;;;;;5033487;28;20038;-79
2023/08/03 08:08:34;;;;;;;5.10;1.30;;;18.50;99.90;;;;;;5014449;28;20029;-79
2023/08/03 08:11:00;;;;;;;5.95;1.63;;;18.70;99.90;;;;;;5014509;28;20096;-79
2023/08/03 08:13:26;;;;;;;5.45;1.67;;;18.70;99.90;;;;;;5009734;28;20038;-79
2023/08/03 08:15:51;;;;;;;6.40;1.60;;;18.70;99.90;;;;;;5029120;28;20116;-79
2023/08/03 08:18:17;;;;;;;6.95;1.27;;;18.80;99.90;;;;;;5013170;28;20041;-79
2023/08/03 08:20:44;;;;;;;6.25;1.30;;;18.80;99.90;;;;;;5029381;28;20038;-79
2023/08/03 08:23:10;;;;;;;5.40;1.20;;;18.90;99.90;;;;;;5015622;28;20041;-79
2023/08/03 08:25:37;;;;;;;5.40;1.40;;;18.80;99.90;;;;;;5030771;28;20045;-79
2023/08/03 08:28:03;;;;;;;5.97;1.27;;;18.70;99.90;;;;;;5031004;28;20065;-79
2023/08/03 08:30:29;;;;;;;4.78;0.90;;;18.70;99.90;;;;;;5006608;28;20044;-79
2023/08/03 08:32:54;;;;;;;3.15;0.95;;;18.80;99.90;;;;;;5032612;28;20472;-79
2023/08/03 08:35:20;;;;;;;3.85;1.10;;;18.90;99.90;;;;;;5031998;28;20033;-79
2023/08/03 08:37:45;;;;;;;7.35;1.40;;;19.00;99.90;;;;;;5027943;28;20040;-79
2023/08/03 08:40:11;;;;;;;3.35;1.30;;;19.20;99.90;;;;;;5014074;28;20044;-79
2023/08/03 08:42:38;;;;;;;3.92;1.00;;;19.30;99.90;;;;;;5028520;28;20064;-80
2023/08/03 08:45:06;;;;;;;3.58;0.98;;;19.30;99.90;;;;;;5033523;28;20115;-79
2023/08/03 08:47:32;;;;;;;3.67;1.00;;;19.40;99.90;;;;;;5029345;28;20045;-79
2023/08/03 08:49:57;;;;;;;6.18;1.10;;;19.40;99.90;;;;;;5032011;28;20100;-79
2023/08/03 08:52:25;;;;;;;3.45;0.80;;;19.40;99.90;;;;;;5031080;28;20045;-79
2023/08/03 08:55:09;;;;;;;3.95;0.93;;;19.40;99.90;;;;;;5015015;28;20053;-79
2023/08/03 08:57:35;;;;;;;5.35;1.10;;;19.40;99.90;;;;;;5012521;28;20045;-79
2023/08/03 09:00:03;;;;;;;7.32;1.38;;;19.40;99.90;;;;;;5014155;28;20181;-79
2023/08/03 09:02:30;;;;;;;4.82;1.17;;;19.50;99.90;;;;;;5015315;28;20111;-79
2023/08/03 09:04:56;;;;;;;3.35;1.10;;;19.50;99.90;;;;;;5028929;28;20073;-79
2023/08/03 09:07:22;;;;;;;6.30;1.40;;;19.60;99.90;;;;;;5014969;28;20451;-79
2023/08/03 09:09:48;;;;;;;3.25;0.90;;;19.80;99.90;;;;;;5026160;28;20124;-79
2023/08/03 09:12:26;;;;;;;7.55;1.30;;;19.90;99.90;;;;;;5032215;28;20042;-79
2023/08/03 09:14:52;;;;;;;4.05;1.23;;;20.00;99.90;;;;;;5012283;28;20075;-79
2023/08/03 09:17:19;;;;;;;2.63;1.10;;;20.00;99.90;;;;;;5031964;28;20045;-77
2023/08/03 09:19:45;;;;;;;4.25;1.27;;;20.00;99.90;;;;;;5033099;28;20041;-77
2023/08/03 09:22:11;;;;;;;4.53;1.20;;;20.10;99.90;;;;;;5016947;28;20033;-76
2023/08/03 09:24:37;;;;;;;8.05;1.23;;;20.10;99.90;;;;;;5012000;28;20033;-80
2023/08/03 09:27:04;;;;;;;4.32;1.10;;;20.20;99.90;;;;;;5026459;28;20065;-80
2023/08/03 09:29:31;;;;;;;4.40;1.02;;;20.00;99.90;;;;;;5031581;28;20064;-80
2023/08/03 09:32:06;;;;;;;4.28;1.10;;;20.10;99.90;;;;;;5030381;28;20034;-80
2023/08/03 09:34:42;;;;;;;5.22;1.00;;;20.20;99.90;;;;;;5030841;28;20421;-80
2023/08/03 09:37:08;;;;;;;4.38;1.02;;;20.30;99.90;;;;;;5031846;28;20510;-79
2023/08/03 09:39:36;;;;;;;3.85;1.00;;;20.40;99.90;;;;;;5016360;28;20065;-79
2023/08/03 09:42:04;;;;;;;5.38;1.00;;;20.40;99.90;;;;;;5032774;28;20041;-80
2023/08/03 09:44:33;;;;;;;6.15;1.23;;;20.40;99.90;;;;;;5030304;28;20041;-80
2023/08/03 09:47:02;;;;;;;4.60;1.20;;;20.60;99.90;;;;;;5029811;28;20033;-80
2023/08/03 09:49:29;;;;;;;5.63;1.27;;;20.70;99.90;;;;;;5032482;28;20041;-80
2023/08/03 09:51:57;;;;;;;5.28;1.20;;;20.80;99.90;;;;;;5015295;28;20034;-79
2023/08/03 09:54:37;;;;;;;3.58;0.90;;;20.80;99.90;;;;;;5007305;28;20126;-79
2023/08/03 09:57:08;;;;;;;5.75;1.35;;;20.90;99.90;;;;;;5013093;28;20105;-79
2023/08/03 09:59:36;;;;;;;5.80;1.23;;;20.90;99.90;;;;;;5012858;28;20120;-79
2023/08/03 10:02:07;;;;;;;4.65;1.30;;;20.90;99.90;;;;;;4996266;28;20975;-79
2023/08/03 10:04:36;;;;;;;8.10;1.38;;;21.00;99.90;;;;;;5012742;28;20046;-79
2023/08/03 10:07:06;;;;;;;5.50;1.40;;;20.90;99.90;;;;;;5029322;28;20096;-75
2023/08/03 10:09:42;;;;;;;5.68;1.45;;;20.90;99.90;;;;;;5023707;28;20037;-75
2023/08/03 10:12:15;;;;;;;5.55;1.30;;;20.70;99.90;;;;;;5014864;28;20088;-80
2023/08/03 10:14:43;;;;;;;6.95;1.50;;;20.50;99.90;;;;;;4996136;28;20376;-79
2023/08/03 10:17:11;;;;;;;6.40;1.50;;;20.40;99.90;;;;;;5007522;28;20045;-78
2023/08/03 10:19:39;;;;;;;4.93;1.40;;;20.30;99.90;;;;;;5014390;28;20087;-78
2023/08/03 10:22:09;;;;;;;7.93;1.50;;;20.20;99.90;;;;;;5027305;28;20371;-78
2023/08/03 10:24:34;;;;;;;6.38;1.70;;;20.40;99.90;;;;;;5011827;28;20453;-78
2023/08/03 10:27:20;;;;;;;6.85;1.52;;;20.50;99.90;;;;;;5024415;28;20076;-79
2023/08/03 10:29:56;;;;;;;6.00;1.38;;;20.80;99.90;;;;;;5033999;28;20103;-78
2023/08/03 10:32:27;;;;;;;6.10;1.52;;;20.90;99.90;;;;;;5005387;28;20037;-79
2023/08/03 10:34:58;;;;;;;9.20;1.40;;;21.00;99.90;;;;;;5008999;28;20037;-78
2023/08/03 10:37:26;;;;;;;4.73;1.70;;;21.00;99.90;;;;;;5029622;28;20101;-78
2023/08/03 10:39:53;;;;;;;9.00;1.67;;;20.90;99.90;;;;;;5030965;28;20044;-78
2023/08/03 10:42:35;;;;;;;5.63;1.42;;;20.90;99.90;;;;;;5033444;28;20037;-79
2023/08/03 10:45:22;;;;;;;6.07;1.37;;;20.80;99.90;;;;;;5013978;28;20048;-78
2023/08/03 10:47:48;;;;;;;3.67;1.58;;;20.80;99.90;;;;;;5014895;28;20321;-78
2023/08/03 10:50:14;;;;;;;4.07;1.38;;;21.00;99.90;;;;;;5014752;28;20037;-79
2023/08/03 10:52:40;;;;;;;7.93;1.58;;;21.10;99.90;;;;;;5014565;28;20041;-79
2023/08/03 10:55:26;;;;;;;3.42;1.23;;;21.20;99.90;;;;;;5031080;28;20048;-78
2023/08/03 10:57:52;;;;;;;5.18;1.30;;;21.30;99.90;;;;;;5028055;28;20502;-78
2023/08/03 11:00:18;;;;;;;7.20;1.65;;;21.40;99.90;;;;;;5017035;28;20121;-79
2023/08/03 11:02:44;;;;;;;6.10;1.45;;;21.40;99.90;;;;;;5026570;28;20060;-79
2023/08/03 11:05:13;;;;;;;5.97;1.33;;;21.40;99.90;;;;;;5015618;28;20037;-79
2023/08/03 11:07:41;;;;;;;5.15;1.35;;;21.50;99.90;;;;;;5014176;28;20045;-78
2023/08/03 11:10:15;;;;;;;9.30;1.60;;;21.50;99.90;;;;;;5031128;28;20398;-79
2023/08/03 11:12:42;;;;;;;3.22;1.00;;;21.60;99.90;;;;;;5011548;28;20064;-79
2023/08/03 11:15:09;;;;;;;3.70;1.05;;;21.60;99.90;;;;;;5011571;28;20493;-76
2023/08/03 11:17:36;;;;;;;7.15;1.48;;;21.70;99.90;;;;;;5020689;28;20034;-76
2023/08/03 11:20:07;;;;;;;4.07;1.30;;;21.80;99.90;;;;;;5014235;28;20069;-77
2023/08/03 11:22:33;;;;;;;4.18;1.40;;;21.90;99.90;;;;;;5022316;28;20034;-77
2023/08/03 11:25:03;;;;;;;5.78;1.38;;;21.90;99.90;;;;;;5030682;28;20044;-77
2023/08/03 11:27:30;;;;;;;4.45;1.00;;;21.90;99.90;;;;;;5024499;28;20538;-76
2023/08/03 11:29:56;;;;;;;6.53;1.38;;;21.90;99.90;;;;;;5031175;28;20042;-76
2023/08/03 11:32:24;;;;;;;4.88;1.08;;;22.00;99.90;;;;;;5028001;28;20049;-77
2023/08/03 11:34:57;;;;;;;5.03;1.00;;;22.00;99.90;;;;;;5005342;28;20033;-77
2023/08/03 11:37:22;;;;;;;2.85;0.90;;;22.10;99.90;;;;;;5029018;28;20056;-76
2023/08/03 11:39:49;;;;;;;4.03;0.90;;;22.10;99.90;;;;;;5032101;28;20033;-77
2023/08/03 11:42:15;;;;;;;6.70;1.13;;;22.10;99.90;;;;;;5028376;28;20409;-79
2023/08/03 11:44:45;;;;;;;6.38;1.30;;;22.30;99.90;;;;;;5014584;28;20103;-80
2023/08/03 11:47:11;;;;;;;3.60;0.90;;;22.20;99.90;;;;;;5029475;28;20041;-79
2023/08/03 11:49:36;;;;;;;2.15;0.80;;;22.00;99.90;;;;;;5028296;28;20037;-80
2023/08/03 11:52:02;;;;;;;3.28;0.95;;;21.70;99.90;;;;;;5040452;28;20049;-79
2023/08/03 11:54:29;;;;;;;3.85;1.05;;;21.50;99.90;;;;;;5028438;28;20061;-79
2023/08/03 11:59:49;;;;;;;4.95;1.10;;;21.50;99.90;;;;;;5033873;28;20042;-80
2023/08/03 12:02:16;;;;;;;6.43;1.15;;;21.30;99.90;;;;;;5031045;28;20532;-79
2023/08/03 12:04:42;;;;;;;4.70;1.20;;;21.20;99.90;;;;;;5017772;28;20501;-79
2023/08/03 12:07:07;;;;;;;7.20;1.50;;;21.30;99.90;;;;;;5007751;28;20042;-79
2023/08/03 12:09:40;;;;;;;5.25;1.10;;;21.30;99.90;;;;;;5038924;28;20115;-79
2023/08/03 12:12:11;;;;;;;4.05;1.30;;;21.40;99.90;;;;;;5021200;28;20037;-79
2023/08/03 12:14:37;;;;;;;4.65;1.30;;;21.20;99.90;;;;;;5033988;28;20037;-79
2023/08/03 12:17:09;;;;;;;6.45;1.20;;;21.30;99.90;;;;;;5031839;28;20041;-79
2023/08/03 12:19:35;;;;;;;6.68;1.40;;;21.20;99.90;;;;;;5017745;28;20045;-79
2023/08/03 12:22:01;;;;;;;5.25;1.23;;;21.30;99.90;;;;;;5032052;28;20057;-79
2023/08/03 12:24:31;;;;;;;2.70;1.00;;;21.30;99.90;;;;;;5011256;28;20042;-79
2023/08/03 12:26:56;;;;;;;3.35;0.90;;;21.20;99.90;;;;;;5030318;28;20064;-79
2023/08/03 12:29:25;;;;;;;6.88;1.30;;;21.10;99.90;;;;;;5021763;28;20038;-79
2023/08/03 12:31:50;;;;;;;4.82;1.48;;;21.10;99.90;;;;;;5035030;28;20033;-79
2023/08/03 12:34:16;;;;;;;2.90;0.90;;;21.20;99.90;;;;;;5032920;28;20040;-80
2023/08/03 12:36:45;;;;;;;4.57;1.13;;;21.30;99.90;;;;;;5031531;28;20036;-80
2023/08/03 12:39:10;;;;;;;3.45;0.90;;;21.50;99.90;;;;;;5038472;28;20490;-79
2023/08/03 12:41:36;;;;;;;3.63;0.95;;;21.50;99.90;;;;;;5017305;28;20030;-79
2023/08/03 12:44:02;;;;;;;4.57;1.38;;;21.50;99.90;;;;;;5026132;28;20048;-79
2023/08/03 12:46:27;;;;;;;4.90;1.15;;;21.60;99.90;;;;;;5015926;28;20505;-80